Time;durP1;ratioP1;P1;durP2;ratioP2;P2;SDS_P1;SDS_P2;PMS_P1;PMS_P2;Temp;Humidity;BMP_temperature;BMP_pressure;BME280_temperature;BME280_humidity;BME280_pressure;Samples;Min_cycle;Max_cycle;Signal;HPM_P1;HPM_P2
2022/10/01 00:00:59;;;;;;;6.65;4.22;;;12.10;99.90;;;;;;5000742;28;20085;-59
2022/10/01 00:03:26;;;;;;;5.05;3.47;;;12.10;99.90;;;;;;4978686;28;20026;-60
2022/10/01 00:06:09;;;;;;;5.30;3.42;;;12.10;99.90;;;;;;5006124;28;20045;-59
2022/10/01 00:08:36;;;;;;;6.07;4.22;;;12.10;99.90;;;;;;5005257;28;20037;-59
2022/10/01 00:11:07;;;;;;;9.45;3.88;;;12.10;99.90;;;;;;5005932;28;20687;-59
2022/10/01 00:13:33;;;;;;;6.05;3.70;;;12.20;99.90;;;;;;5004219;28;20876;-59
2022/10/01 00:15:59;;;;;;;6.35;4.13;;;12.20;99.90;;;;;;5000368;28;20105;-60
2022/10/01 00:18:25;;;;;;;4.65;3.53;;;12.20;99.90;;;;;;5012779;28;20535;-61
2022/10/01 00:20:50;;;;;;;6.78;3.85;;;12.30;99.90;;;;;;5008708;28;20492;-60
2022/10/01 00:23:18;;;;;;;5.10;3.50;;;12.30;99.90;;;;;;4998084;28;20109;-59
2022/10/01 00:25:43;;;;;;;10.65;3.78;;;12.30;99.90;;;;;;5012145;28;20040;-60
2022/10/01 00:28:10;;;;;;;8.55;3.95;;;12.30;99.90;;;;;;5016318;28;20038;-60
2022/10/01 00:30:36;;;;;;;8.63;4.03;;;12.30;99.90;;;;;;5009922;28;20026;-60
2022/10/01 00:33:01;;;;;;;9.00;3.45;;;12.30;99.90;;;;;;5022358;28;20032;-59
2022/10/01 00:35:27;;;;;;;7.38;4.15;;;12.30;99.90;;;;;;5010969;28;20428;-59
2022/10/01 00:37:53;;;;;;;9.15;4.93;;;12.20;99.90;;;;;;5015691;28;20028;-60
2022/10/01 00:40:20;;;;;;;9.05;5.20;;;12.20;99.90;;;;;;5015806;28;20030;-60
2022/10/01 00:42:46;;;;;;;7.90;5.57;;;12.10;99.90;;;;;;5015935;28;20509;-60
2022/10/01 00:45:14;;;;;;;7.20;5.05;;;12.00;99.90;;;;;;5015120;28;20200;-59
2022/10/01 00:47:56;;;;;;;15.18;5.22;;;12.00;99.90;;;;;;4997684;28;20040;-59
2022/10/01 00:50:28;;;;;;;11.05;6.05;;;11.90;99.90;;;;;;5001413;28;20168;-60
2022/10/01 00:52:58;;;;;;;11.25;5.50;;;11.80;99.90;;;;;;5016203;28;20041;-57
2022/10/01 00:55:29;;;;;;;12.23;6.38;;;11.70;99.90;;;;;;5010362;28;20029;-60
2022/10/01 00:57:55;;;;;;;8.02;5.82;;;11.70;99.90;;;;;;4993783;28;20021;-60
2022/10/01 01:00:21;;;;;;;10.93;5.45;;;11.70;99.90;;;;;;5011336;28;20050;-59
2022/10/01 01:02:47;;;;;;;8.35;5.20;;;11.60;99.90;;;;;;5011998;28;20394;-60
2022/10/01 01:05:13;;;;;;;9.57;5.40;;;11.60;99.90;;;;;;5007036;28;20030;-59
2022/10/01 01:07:44;;;;;;;9.10;5.95;;;11.60;99.90;;;;;;5012783;28;20124;-59
2022/10/01 01:10:11;;;;;;;13.68;5.88;;;11.60;99.90;;;;;;5014141;28;20041;-58
2022/10/01 01:12:47;;;;;;;9.38;6.47;;;11.50;99.90;;;;;;5015137;28;20406;-60
2022/10/01 01:15:31;;;;;;;11.52;6.28;;;11.50;99.90;;;;;;5009333;28;20025;-59
2022/10/01 01:18:18;;;;;;;11.40;6.80;;;11.50;99.90;;;;;;5005003;28;20018;-59
2022/10/01 01:20:49;;;;;;;11.40;7.18;;;11.40;99.90;;;;;;5003733;28;20040;-59
2022/10/01 01:23:17;;;;;;;14.13;7.72;;;11.30;99.90;;;;;;5014996;28;20573;-59
2022/10/01 01:26:04;;;;;;;8.55;6.45;;;11.30;99.90;;;;;;5014945;28;20117;-59
2022/10/01 01:28:40;;;;;;;19.85;8.18;;;11.20;99.90;;;;;;5012423;28;20041;-56
2022/10/01 01:31:11;;;;;;;11.45;6.72;;;11.20;99.90;;;;;;5010739;28;20045;-59
2022/10/01 01:33:39;;;;;;;10.48;6.78;;;11.20;99.90;;;;;;5012159;28;20368;-60
2022/10/01 01:36:15;;;;;;;12.90;6.97;;;11.20;99.90;;;;;;5009808;28;20038;-60
2022/10/01 01:38:47;;;;;;;8.75;6.72;;;11.10;99.90;;;;;;5003069;28;20025;-59
2022/10/01 01:41:15;;;;;;;11.70;6.22;;;11.20;99.90;;;;;;5013951;28;20109;-60
2022/10/01 01:43:47;;;;;;;14.27;6.68;;;11.20;99.90;;;;;;5016127;28;20033;-59
2022/10/01 01:46:16;;;;;;;11.65;6.68;;;11.10;99.90;;;;;;5011124;28;20034;-58
2022/10/01 01:48:46;;;;;;;11.52;7.13;;;11.10;99.90;;;;;;5015015;28;20541;-59
2022/10/01 01:51:19;;;;;;;14.73;6.43;;;11.10;99.90;;;;;;5014729;28;20429;-59
2022/10/01 01:53:45;;;;;;;9.32;6.30;;;11.10;99.90;;;;;;5011862;28;20026;-58
2022/10/01 01:56:10;;;;;;;10.80;6.13;;;11.10;99.90;;;;;;5013749;28;20060;-60
2022/10/01 01:58:38;;;;;;;12.98;6.38;;;11.10;99.90;;;;;;5016795;28;20022;-60
2022/10/01 02:01:03;;;;;;;11.60;6.68;;;11.10;99.90;;;;;;5012329;28;20058;-59
2022/10/01 02:03:33;;;;;;;9.20;6.00;;;11.10;99.90;;;;;;5014761;28;20049;-59
2022/10/01 02:06:16;;;;;;;9.25;5.93;;;11.10;99.90;;;;;;5007609;28;20030;-60
2022/10/01 02:08:49;;;;;;;9.55;6.40;;;11.10;99.90;;;;;;5008528;28;20033;-61
2022/10/01 02:11:21;;;;;;;15.03;6.43;;;11.00;99.90;;;;;;5005521;28;20040;-61
2022/10/01 02:13:58;;;;;;;12.45;7.00;;;11.00;99.90;;;;;;5003787;28;20367;-62
2022/10/01 02:16:41;;;;;;;11.82;6.45;;;11.00;99.90;;;;;;5009216;28;20033;-60
2022/10/01 02:19:34;;;;;;;8.98;6.22;;;11.00;99.90;;;;;;5010165;28;20395;-60
2022/10/01 02:22:09;;;;;;;12.70;5.68;;;11.00;99.90;;;;;;5012119;28;20116;-60
2022/10/01 02:24:58;;;;;;;9.80;5.82;;;11.00;99.90;;;;;;5010626;28;20109;-61
2022/10/01 02:27:43;;;;;;;8.55;5.60;;;11.00;99.90;;;;;;5011489;28;20049;-61
2022/10/01 02:30:10;;;;;;;11.50;6.00;;;11.00;99.90;;;;;;5003314;28;20523;-60
2022/10/01 02:32:39;;;;;;;14.55;5.70;;;11.00;99.90;;;;;;5010604;28;20041;-60
2022/10/01 02:35:11;;;;;;;12.18;5.85;;;11.00;99.90;;;;;;5010554;28;20030;-60
2022/10/01 02:37:39;;;;;;;7.63;5.57;;;11.00;99.90;;;;;;5004145;28;20731;-58
2022/10/01 02:40:10;;;;;;;10.68;5.43;;;11.00;99.90;;;;;;5012889;28;20029;-60
2022/10/01 02:42:36;;;;;;;10.68;6.57;;;11.00;99.90;;;;;;5014159;28;20653;-60
2022/10/01 02:45:03;;;;;;;8.55;6.18;;;11.00;99.90;;;;;;5006212;28;20030;-60
2022/10/01 02:47:43;;;;;;;11.98;6.03;;;11.00;99.90;;;;;;5009885;28;20029;-60
2022/10/01 02:50:11;;;;;;;9.48;5.65;;;11.00;99.90;;;;;;4999659;28;20031;-60
2022/10/01 02:52:58;;;;;;;15.63;5.78;;;11.00;99.90;;;;;;5014297;28;20026;-60
2022/10/01 02:55:28;;;;;;;7.25;5.40;;;11.00;99.90;;;;;;5013172;28;20046;-61
2022/10/01 02:57:54;;;;;;;12.00;5.28;;;11.00;99.90;;;;;;4993187;28;20029;-60
2022/10/01 03:00:20;;;;;;;9.50;5.47;;;11.00;99.90;;;;;;5007743;28;20037;-61
2022/10/01 03:02:47;;;;;;;8.63;5.53;;;11.00;99.90;;;;;;5014055;28;20029;-60
2022/10/01 03:05:14;;;;;;;6.78;4.63;;;11.00;99.90;;;;;;5003551;28;20041;-61
2022/10/01 03:07:39;;;;;;;10.15;5.65;;;11.00;99.90;;;;;;5012364;28;20029;-60
2022/10/01 03:10:07;;;;;;;7.20;5.97;;;11.00;99.90;;;;;;5006558;28;20034;-59
2022/10/01 03:12:33;;;;;;;9.68;6.30;;;11.00;99.90;;;;;;5018403;28;20021;-60
2022/10/01 03:14:59;;;;;;;8.60;5.47;;;11.00;99.90;;;;;;5005994;28;20045;-61
2022/10/01 03:17:25;;;;;;;10.57;5.80;;;11.00;99.90;;;;;;5011425;28;20037;-59
2022/10/01 03:19:51;;;;;;;8.88;5.97;;;11.00;99.90;;;;;;5010681;28;20018;-59
2022/10/01 03:22:21;;;;;;;9.30;5.38;;;11.00;99.90;;;;;;5015528;28;20113;-59
2022/10/01 03:24:47;;;;;;;7.90;4.63;;;11.00;99.90;;;;;;5007661;28;20076;-58
2022/10/01 03:27:13;;;;;;;10.80;4.75;;;11.00;99.90;;;;;;5000962;28;20092;-60
2022/10/01 03:29:38;;;;;;;6.45;5.38;;;11.00;99.90;;;;;;5013473;28;20479;-60
2022/10/01 03:32:04;;;;;;;6.70;4.93;;;11.00;99.90;;;;;;5008939;28;20034;-59
2022/10/01 03:34:29;;;;;;;8.05;5.10;;;11.00;99.90;;;;;;5007260;28;20030;-60
2022/10/01 03:36:55;;;;;;;7.10;4.97;;;11.00;99.90;;;;;;5004006;28;20042;-58
2022/10/01 03:39:21;;;;;;;8.98;4.78;;;11.00;99.90;;;;;;5011954;28;20038;-59
2022/10/01 03:41:46;;;;;;;9.50;4.75;;;11.00;99.90;;;;;;5004405;28;20021;-59
2022/10/01 03:44:12;;;;;;;7.25;5.20;;;11.00;99.90;;;;;;5007253;28;20088;-60
2022/10/01 03:46:37;;;;;;;10.80;4.93;;;11.00;99.90;;;;;;5001144;28;20041;-59
2022/10/01 03:49:03;;;;;;;7.75;4.53;;;11.00;99.90;;;;;;5005521;28;20729;-59
2022/10/01 03:51:30;;;;;;;9.38;4.65;;;11.00;99.90;;;;;;5016147;28;20398;-58
2022/10/01 03:53:56;;;;;;;11.32;4.28;;;11.00;99.90;;;;;;5009419;28;20078;-59
2022/10/01 03:56:22;;;;;;;6.25;3.47;;;11.00;99.90;;;;;;5014322;28;20034;-61
2022/10/01 03:58:48;;;;;;;8.90;3.80;;;11.00;99.90;;;;;;5009474;28;20542;-57
2022/10/01 04:01:13;;;;;;;5.65;2.75;;;11.00;99.90;;;;;;5003354;28;20061;-59
2022/10/01 04:03:40;;;;;;;2.75;2.25;;;11.00;99.90;;;;;;5006022;28;20029;-59
2022/10/01 04:06:06;;;;;;;3.15;2.40;;;11.00;99.90;;;;;;5010588;28;20022;-61
2022/10/01 04:08:31;;;;;;;2.40;2.00;;;11.10;99.90;;;;;;5005966;28;20034;-60
2022/10/01 04:10:57;;;;;;;2.78;1.73;;;11.10;99.90;;;;;;5006952;28;20030;-58
2022/10/01 04:13:22;;;;;;;3.20;1.60;;;11.20;99.90;;;;;;5033004;22;20025;-63
2022/10/01 04:15:48;;;;;;;1.77;1.58;;;11.30;99.90;;;;;;5026027;28;20398;-68
2022/10/01 04:18:16;;;;;;;2.88;1.90;;;11.30;99.90;;;;;;5023930;28;20033;-64
2022/10/01 04:20:41;;;;;;;1.67;1.15;;;11.30;99.90;;;;;;5023382;28;20061;-64
2022/10/01 04:23:07;;;;;;;1.15;1.05;;;11.30;99.90;;;;;;5026507;28;20056;-65
2022/10/01 04:25:33;;;;;;;3.15;0.77;;;11.30;99.90;;;;;;5028977;28;20478;-65
2022/10/01 04:28:04;;;;;;;4.50;0.75;;;11.40;99.90;;;;;;5027991;28;20059;-64
2022/10/01 04:30:34;;;;;;;0.75;0.75;;;11.40;99.90;;;;;;5025284;28;20074;-65
2022/10/01 04:33:00;;;;;;;2.15;0.75;;;11.40;99.90;;;;;;5026450;28;20052;-64
2022/10/01 04:35:27;;;;;;;1.05;0.90;;;11.50;99.90;;;;;;5026951;28;20079;-65
2022/10/01 04:37:58;;;;;;;1.27;0.55;;;11.50;99.90;;;;;;5021869;28;20037;-64
2022/10/01 04:40:24;;;;;;;3.35;0.70;;;11.40;99.90;;;;;;5025872;28;20026;-66
2022/10/01 04:42:50;;;;;;;2.22;0.40;;;11.50;99.90;;;;;;5025839;28;20032;-64
2022/10/01 04:45:15;;;;;;;3.53;0.60;;;11.50;99.90;;;;;;5023162;28;20029;-63
2022/10/01 04:47:54;;;;;;;3.63;0.80;;;11.50;99.90;;;;;;5027782;28;20446;-62
2022/10/01 04:50:20;;;;;;;1.45;0.40;;;11.60;99.90;;;;;;5027405;28;20061;-64
2022/10/01 04:52:46;;;;;;;2.22;0.50;;;11.70;99.90;;;;;;5026479;28;20033;-64
2022/10/01 04:55:13;;;;;;;0.57;0.30;;;11.60;99.90;;;;;;5024227;28;20034;-63
2022/10/01 04:57:38;;;;;;;0.57;0.40;;;11.60;99.90;;;;;;5029196;28;20029;-61
2022/10/01 05:00:08;;;;;;;1.15;0.32;;;11.50;99.90;;;;;;5033909;28;20025;-63
2022/10/01 05:02:33;;;;;;;0.88;0.40;;;11.70;99.90;;;;;;5028135;28;20028;-64
2022/10/01 05:05:04;;;;;;;1.95;0.43;;;11.60;99.90;;;;;;5031581;28;20029;-62
2022/10/01 05:07:30;;;;;;;2.00;0.40;;;11.60;99.90;;;;;;5025566;28;20168;-64
2022/10/01 05:09:56;;;;;;;1.10;0.47;;;11.60;99.90;;;;;;5023847;28;20128;-64
2022/10/01 05:12:24;;;;;;;5.05;0.50;;;11.70;99.90;;;;;;5026411;28;20036;-62
2022/10/01 05:14:50;;;;;;;0.40;0.40;;;11.70;99.90;;;;;;5025156;28;20411;-62
2022/10/01 05:17:17;;;;;;;0.30;0.30;;;11.70;99.90;;;;;;5029531;28;20478;-64
2022/10/01 05:19:42;;;;;;;0.30;0.30;;;11.70;99.90;;;;;;5023506;28;20083;-66
2022/10/01 05:22:08;;;;;;;0.40;0.40;;;11.70;99.90;;;;;;5024459;28;20120;-64
2022/10/01 05:24:34;;;;;;;1.10;0.60;;;11.70;99.90;;;;;;5023366;28;20033;-64
2022/10/01 05:27:00;;;;;;;0.52;0.30;;;11.70;99.90;;;;;;5024709;28;20079;-61
2022/10/01 05:29:25;;;;;;;0.30;0.30;;;11.70;99.90;;;;;;5025008;28;20022;-64
2022/10/01 05:31:51;;;;;;;4.90;0.50;;;11.80;99.90;;;;;;5025249;28;20113;-64
2022/10/01 05:34:16;;;;;;;4.93;0.40;;;11.90;99.90;;;;;;5024982;28;20033;-64
2022/10/01 05:36:42;;;;;;;0.20;0.20;;;11.80;99.90;;;;;;5028711;28;20490;-64
2022/10/01 05:39:07;;;;;;;1.17;0.45;;;11.80;99.90;;;;;;5025511;28;20029;-64
2022/10/01 05:41:33;;;;;;;0.30;0.30;;;11.80;99.90;;;;;;5024694;28;20018;-63
2022/10/01 05:43:58;;;;;;;0.25;0.25;;;11.80;99.90;;;;;;5025926;28;20029;-63
2022/10/01 05:46:24;;;;;;;0.40;0.40;;;11.80;99.90;;;;;;5025781;28;20110;-65
2022/10/01 05:48:50;;;;;;;0.70;0.35;;;11.90;99.90;;;;;;5029169;28;20665;-63
2022/10/01 05:51:16;;;;;;;0.60;0.30;;;11.90;99.90;;;;;;5030718;28;20036;-64
2022/10/01 05:53:42;;;;;;;0.20;0.20;;;11.90;99.90;;;;;;5023978;28;20068;-62
2022/10/01 05:56:09;;;;;;;1.27;0.30;;;12.00;99.90;;;;;;5027908;28;20057;-63
2022/10/01 05:58:35;;;;;;;0.30;0.30;;;12.00;99.90;;;;;;5030891;28;20013;-60
2022/10/01 06:01:00;;;;;;;0.20;0.20;;;11.90;99.90;;;;;;5028893;28;20548;-62
2022/10/01 06:03:27;;;;;;;0.20;0.20;;;12.00;99.90;;;;;;5030820;28;20025;-63
2022/10/01 06:05:53;;;;;;;5.05;0.40;;;12.00;99.90;;;;;;5029249;28;20025;-60
2022/10/01 06:08:20;;;;;;;0.30;0.30;;;12.00;99.90;;;;;;5027186;28;20034;-61
2022/10/01 06:10:46;;;;;;;0.73;0.70;;;12.00;99.90;;;;;;5026315;28;20026;-63
2022/10/01 06:13:18;;;;;;;0.63;0.20;;;12.10;99.90;;;;;;5026183;28;20029;-63
2022/10/01 06:15:45;;;;;;;0.30;0.20;;;12.10;99.90;;;;;;5031912;28;20040;-60
2022/10/01 06:18:12;;;;;;;0.22;0.22;;;12.20;99.90;;;;;;5028152;28;20811;-61
2022/10/01 06:20:39;;;;;;;0.40;0.15;;;12.30;99.90;;;;;;5022414;28;20033;-64
2022/10/01 06:23:10;;;;;;;0.20;0.20;;;12.30;99.90;;;;;;5026460;28;20033;-64
2022/10/01 06:25:37;;;;;;;0.38;0.20;;;12.30;99.90;;;;;;5023601;28;20031;-62
2022/10/01 06:28:04;;;;;;;0.22;0.20;;;12.30;99.90;;;;;;5034553;28;20124;-63
2022/10/01 06:30:32;;;;;;;0.65;0.30;;;12.40;99.90;;;;;;5027346;28;20120;-61
2022/10/01 06:33:20;;;;;;;0.20;0.20;;;12.40;99.90;;;;;;5026061;28;20037;-60
2022/10/01 06:35:47;;;;;;;0.17;0.17;;;12.30;99.90;;;;;;5029933;28;20032;-63
2022/10/01 06:38:15;;;;;;;0.32;0.32;;;12.30;99.90;;;;;;5027403;28;20021;-62
2022/10/01 06:40:41;;;;;;;0.30;0.30;;;12.30;99.90;;;;;;5025200;28;20024;-63
2022/10/01 06:43:07;;;;;;;0.30;0.30;;;12.20;99.90;;;;;;5022125;28;20025;-62
2022/10/01 06:45:41;;;;;;;2.20;0.40;;;12.20;99.90;;;;;;5031244;28;20025;-62
2022/10/01 06:48:13;;;;;;;0.50;0.35;;;12.30;99.90;;;;;;5029046;28;20035;-61
2022/10/01 06:50:40;;;;;;;0.35;0.28;;;12.30;99.90;;;;;;5023911;28;20395;-62
2022/10/01 06:53:06;;;;;;;0.22;0.22;;;12.30;99.90;;;;;;5022098;28;20116;-60
2022/10/01 06:55:33;;;;;;;0.68;0.20;;;12.30;99.90;;;;;;5027769;28;20109;-64
2022/10/01 06:58:02;;;;;;;1.70;0.30;;;12.30;99.90;;;;;;5028662;28;20053;-62
2022/10/01 07:00:30;;;;;;;0.90;0.40;;;12.30;99.90;;;;;;5026434;28;20029;-60
2022/10/01 07:02:55;;;;;;;0.20;0.20;;;12.30;99.90;;;;;;5025837;28;20040;-62
2022/10/01 07:05:23;;;;;;;2.50;0.30;;;12.40;99.90;;;;;;5023189;28;20037;-64
2022/10/01 07:07:49;;;;;;;0.40;0.20;;;12.40;99.90;;;;;;5026554;28;20547;-63
2022/10/01 07:10:16;;;;;;;3.10;0.22;;;12.40;99.90;;;;;;5029878;28;20056;-56
2022/10/01 07:12:41;;;;;;;0.68;0.43;;;12.40;99.90;;;;;;5027171;28;20037;-62
2022/10/01 07:15:08;;;;;;;1.73;0.40;;;12.40;99.90;;;;;;5021334;28;20029;-65
2022/10/01 07:17:41;;;;;;;0.75;0.30;;;12.40;99.90;;;;;;5029384;28;20387;-62
2022/10/01 07:20:07;;;;;;;2.15;0.50;;;12.40;99.90;;;;;;5027371;28;20108;-64
2022/10/01 07:22:32;;;;;;;1.38;0.43;;;12.50;99.90;;;;;;5027341;28;20117;-64
2022/10/01 07:24:58;;;;;;;0.95;0.50;;;12.50;99.90;;;;;;5027068;28;20110;-63
2022/10/01 07:27:23;;;;;;;1.10;0.57;;;12.60;99.90;;;;;;5023655;28;20040;-62
2022/10/01 07:29:49;;;;;;;0.95;0.52;;;12.60;99.90;;;;;;5027230;28;20025;-66
2022/10/01 07:32:14;;;;;;;1.00;0.60;;;12.70;99.90;;;;;;5026392;28;20037;-61
2022/10/01 07:34:40;;;;;;;4.70;0.80;;;12.70;99.90;;;;;;5029147;28;20037;-64
2022/10/01 07:37:07;;;;;;;1.42;0.60;;;12.80;99.90;;;;;;5025155;28;20511;-63
2022/10/01 07:39:33;;;;;;;5.80;1.05;;;12.80;99.90;;;;;;5019765;28;20033;-64
2022/10/01 07:41:59;;;;;;;0.90;0.60;;;12.90;99.90;;;;;;5029938;28;20032;-62
2022/10/01 07:44:26;;;;;;;1.92;0.98;;;12.90;99.90;;;;;;5025581;28;20030;-63
2022/10/01 07:46:52;;;;;;;3.33;0.70;;;13.00;99.90;;;;;;5023534;28;20030;-65
2022/10/01 07:49:18;;;;;;;1.33;0.70;;;13.10;99.90;;;;;;5024804;28;20026;-64
2022/10/01 07:51:44;;;;;;;1.05;0.80;;;13.10;99.90;;;;;;5024895;28;20036;-63
2022/10/01 07:54:09;;;;;;;2.05;0.70;;;13.20;99.90;;;;;;5027027;28;20129;-66
2022/10/01 07:56:35;;;;;;;0.47;0.40;;;13.20;99.90;;;;;;5028391;28;20033;-64
2022/10/01 07:59:01;;;;;;;0.47;0.40;;;13.30;99.90;;;;;;5027117;28;20022;-65
2022/10/01 08:01:27;;;;;;;0.43;0.40;;;13.30;99.90;;;;;;5019789;28;20037;-64
2022/10/01 08:03:53;;;;;;;0.30;0.30;;;13.30;99.90;;;;;;5024397;28;20427;-62
2022/10/01 08:06:20;;;;;;;0.52;0.40;;;13.30;99.90;;;;;;5026176;28;20490;-65
2022/10/01 08:08:46;;;;;;;0.75;0.60;;;13.40;99.90;;;;;;5027781;28;20498;-64
2022/10/01 08:11:14;;;;;;;0.20;0.20;;;13.50;99.90;;;;;;5027853;28;20487;-64
2022/10/01 08:13:40;;;;;;;0.30;0.30;;;13.60;99.90;;;;;;5025588;28;20061;-63
2022/10/01 08:16:08;;;;;;;0.88;0.63;;;13.60;99.90;;;;;;5026134;28;20053;-65
2022/10/01 08:18:34;;;;;;;1.45;0.30;;;13.60;99.90;;;;;;5028160;28;20026;-65
2022/10/01 08:21:03;;;;;;;1.20;0.30;;;13.70;99.90;;;;;;5026584;28;20427;-64
2022/10/01 08:23:32;;;;;;;1.27;0.35;;;13.70;99.90;;;;;;5032068;28;20033;-63
2022/10/01 08:25:59;;;;;;;5.18;0.88;;;13.70;99.90;;;;;;5024195;28;20028;-63
2022/10/01 08:28:24;;;;;;;9.43;2.92;;;13.70;99.90;;;;;;5018227;28;20079;-64
2022/10/01 08:30:50;;;;;;;15.40;5.80;;;13.80;99.90;;;;;;5024828;28;20022;-61
2022/10/01 08:33:16;;;;;;;26.48;10.60;;;13.80;99.90;;;;;;5020988;28;20452;-60
2022/10/01 08:35:42;;;;;;;60.28;25.23;;;13.90;99.90;;;;;;5025108;28;20048;-62
2022/10/01 08:38:08;;;;;;;19.75;6.78;;;13.90;99.90;;;;;;5030963;28;20479;-62
2022/10/01 08:40:41;;;;;;;20.10;7.78;;;14.00;99.90;;;;;;5021751;28;20112;-63
2022/10/01 08:43:20;;;;;;;3.00;1.15;;;14.10;99.90;;;;;;5026396;28;20234;-62
2022/10/01 08:45:51;;;;;;;1.60;0.50;;;14.20;99.90;;;;;;5031747;28;20501;-63
2022/10/01 08:48:38;;;;;;;0.82;0.50;;;14.20;99.90;;;;;;5028447;28;20087;-56
2022/10/01 08:51:24;;;;;;;0.30;0.30;;;14.30;99.90;;;;;;5028763;28;20021;-57
2022/10/01 08:54:08;;;;;;;3.10;0.60;;;14.30;99.90;;;;;;5027156;28;20025;-58
2022/10/01 08:56:38;;;;;;;0.68;0.47;;;14.30;99.90;;;;;;5028651;28;20532;-59
2022/10/01 08:59:20;;;;;;;3.17;0.80;;;14.50;99.90;;;;;;5031045;28;20025;-59
2022/10/01 09:01:45;;;;;;;2.97;1.00;;;14.60;99.90;;;;;;5029742;28;20390;-58
2022/10/01 09:04:11;;;;;;;2.20;0.63;;;14.70;99.90;;;;;;5028675;28;20022;-59
2022/10/01 09:06:37;;;;;;;3.10;0.65;;;14.70;99.90;;;;;;5025438;28;20036;-60
2022/10/01 09:09:30;;;;;;;4.25;0.57;;;14.70;99.90;;;;;;5029003;28;20546;-60
2022/10/01 09:12:02;;;;;;;1.77;0.70;;;14.70;99.90;;;;;;5023391;28;20037;-56
2022/10/01 09:14:32;;;;;;;4.45;1.17;;;14.60;99.90;;;;;;5025057;28;20041;-57
2022/10/01 09:17:32;;;;;;;6.38;0.80;;;14.70;99.90;;;;;;5028443;28;20530;-56
2022/10/01 09:20:10;;;;;;;6.38;1.17;;;14.70;99.90;;;;;;5028908;28;20037;-59
2022/10/01 09:23:01;;;;;;;7.22;0.82;;;14.70;99.90;;;;;;5025074;28;20079;-61
2022/10/01 09:25:27;;;;;;;7.38;1.45;;;14.70;99.90;;;;;;5027982;28;20398;-59
2022/10/01 09:28:10;;;;;;;2.42;1.05;;;14.80;99.90;;;;;;5031507;28;20109;-59
2022/10/01 09:30:39;;;;;;;3.92;0.80;;;14.80;99.90;;;;;;5027443;28;20025;-59
2022/10/01 09:33:16;;;;;;;2.38;0.60;;;14.90;99.90;;;;;;5028515;28;20483;-58
2022/10/01 09:35:55;;;;;;;3.97;0.90;;;15.00;99.90;;;;;;5023775;28;20505;-59
2022/10/01 09:38:38;;;;;;;8.30;1.10;;;15.10;99.90;;;;;;5020134;28;20022;-56
2022/10/01 09:41:05;;;;;;;2.83;0.88;;;15.10;99.90;;;;;;5028321;28;20018;-56
2022/10/01 09:43:33;;;;;;;3.65;1.00;;;15.20;99.90;;;;;;5025081;28;20463;-58
2022/10/01 09:46:01;;;;;;;3.55;1.17;;;15.30;99.90;;;;;;5027463;28;20025;-58
2022/10/01 09:49:04;;;;;;;4.13;0.95;;;15.40;99.90;;;;;;5027044;28;20486;-53
2022/10/01 09:51:41;;;;;;;5.72;1.08;;;15.60;99.90;;;;;;5027646;28;20100;-58
2022/10/01 09:54:20;;;;;;;5.95;1.25;;;15.80;99.90;;;;;;5027171;28;20486;-58
2022/10/01 09:57:00;;;;;;;2.92;1.25;;;15.90;99.90;;;;;;5028386;28;20426;-59
2022/10/01 09:59:47;;;;;;;4.32;1.38;;;16.00;99.90;;;;;;5034781;28;20017;-57
2022/10/01 10:02:21;;;;;;;10.02;1.42;;;15.90;99.90;;;;;;5031043;28;20083;-57
2022/10/01 10:04:57;;;;;;;9.93;1.65;;;15.90;99.90;;;;;;5027290;28;20549;-54
2022/10/01 10:07:22;;;;;;;5.22;1.80;;;16.00;99.90;;;;;;5027613;28;20108;-55
2022/10/01 10:09:48;;;;;;;6.15;1.77;;;16.20;99.90;;;;;;5025876;28;20018;-53
2022/10/01 10:12:31;;;;;;;4.28;1.73;;;16.30;99.90;;;;;;5029569;28;20033;-56
2022/10/01 10:15:06;;;;;;;7.85;2.05;;;16.40;99.90;;;;;;5057238;22;20045;-53
2022/10/01 10:17:35;;;;;;;7.03;1.67;;;16.50;99.90;;;;;;5045812;28;20384;-55
2022/10/01 10:20:07;;;;;;;12.35;2.30;;;16.60;99.90;;;;;;5047213;28;20108;-57
2022/10/01 10:22:33;;;;;;;7.55;2.17;;;16.70;99.90;;;;;;5049785;28;20026;-58
2022/10/01 10:25:23;;;;;;;7.15;2.03;;;16.90;99.90;;;;;;5048591;28;20017;-55
2022/10/01 10:27:54;;;;;;;6.88;2.25;;;16.80;99.90;;;;;;5045307;28;20032;-58
2022/10/01 10:30:20;;;;;;;7.03;2.30;;;17.00;99.90;;;;;;5045675;28;20099;-54
2022/10/01 10:32:47;;;;;;;16.70;1.92;;;17.00;99.90;;;;;;5048465;28;20017;-54
2022/10/01 10:35:24;;;;;;;8.35;1.98;;;16.90;99.90;;;;;;5049951;28;20764;-55
2022/10/01 10:37:53;;;;;;;15.30;2.10;;;17.00;99.90;;;;;;5048557;28;20049;-55
2022/10/01 10:40:23;;;;;;;7.47;1.92;;;16.90;99.90;;;;;;5048955;28;20104;-57
2022/10/01 10:42:51;;;;;;;8.75;1.63;;;16.80;99.90;;;;;;5047182;28;20033;-58
2022/10/01 10:45:20;;;;;;;11.75;2.70;;;16.70;99.90;;;;;;5041839;28;20079;-54
2022/10/01 10:47:49;;;;;;;9.38;2.28;;;16.60;99.90;;;;;;5049714;28;20032;-54
2022/10/01 10:50:36;;;;;;;6.85;2.08;;;16.60;99.90;;;;;;5045395;28;20033;-53
2022/10/01 10:53:32;;;;;;;9.13;1.90;;;16.60;99.90;;;;;;5041845;28;20406;-56
2022/10/01 10:56:04;;;;;;;8.93;1.95;;;16.60;99.90;;;;;;5046737;28;20021;-57
2022/10/01 10:58:32;;;;;;;5.10;2.08;;;16.60;99.90;;;;;;5050186;28;20116;-55
2022/10/01 11:01:03;;;;;;;9.55;3.10;;;16.50;99.90;;;;;;5043305;28;20024;-56
2022/10/01 11:03:31;;;;;;;11.75;1.92;;;16.40;99.90;;;;;;5050026;28;20021;-56
2022/10/01 11:06:10;;;;;;;14.35;2.13;;;16.40;99.90;;;;;;5041188;28;20029;-53
2022/10/01 11:08:35;;;;;;;5.65;1.90;;;16.50;99.90;;;;;;5046368;28;20039;-56
2022/10/01 11:11:19;;;;;;;6.18;1.80;;;16.40;99.90;;;;;;5047492;28;20096;-54
2022/10/01 11:14:02;;;;;;;9.83;1.87;;;16.40;99.90;;;;;;5049054;28;20036;-57
2022/10/01 11:16:49;;;;;;;8.20;1.98;;;16.40;99.90;;;;;;5048016;28;20298;-57
2022/10/01 11:19:42;;;;;;;13.18;2.00;;;16.50;99.90;;;;;;5047299;28;20037;-58
2022/10/01 11:22:51;;;;;;;9.00;2.10;;;16.60;99.90;;;;;;5049574;28;20083;-57
2022/10/01 11:25:57;;;;;;;6.07;1.80;;;16.80;99.90;;;;;;5043331;28;20037;-55
2022/10/01 11:28:53;;;;;;;14.20;2.08;;;17.00;99.90;;;;;;5045251;28;20037;-56
2022/10/01 11:31:30;;;;;;;4.47;1.63;;;17.20;99.90;;;;;;5047066;28;20029;-55
2022/10/01 11:34:24;;;;;;;11.77;1.83;;;17.40;99.90;;;;;;5048812;28;20043;-58
2022/10/01 11:37:10;;;;;;;12.63;2.55;;;17.50;99.90;;;;;;5051097;28;20039;-54
2022/10/01 11:39:41;;;;;;;11.57;2.50;;;17.60;99.90;;;;;;5049648;28;20055;-57
2022/10/01 11:42:14;;;;;;;15.63;3.05;;;17.50;99.90;;;;;;5050326;28;20035;-55
2022/10/01 11:44:56;;;;;;;7.57;2.10;;;17.50;99.90;;;;;;5051317;28;20510;-53
2022/10/01 11:47:28;;;;;;;14.10;2.05;;;17.50;99.90;;;;;;5039162;28;20108;-55
2022/10/01 11:50:04;;;;;;;10.13;1.90;;;17.40;99.90;;;;;;5044627;28;20033;-56
2022/10/01 11:52:53;;;;;;;11.80;1.85;;;16.90;99.90;;;;;;5047520;28;20102;-57
2022/10/01 11:58:51;;;;;;;5.53;1.48;;;15.30;99.90;;;;;;5042619;28;20099;-58
2022/10/01 12:01:36;;;;;;;7.55;1.98;;;15.00;99.90;;;;;;5046729;28;20045;-57
2022/10/01 12:04:23;;;;;;;7.35;3.00;;;15.10;99.90;;;;;;5046531;28;20479;-58
2022/10/01 12:07:09;;;;;;;7.07;1.77;;;15.40;99.90;;;;;;5050553;28;20036;-58
2022/10/01 12:09:53;;;;;;;11.50;2.80;;;15.90;99.90;;;;;;5040745;28;20029;-57
2022/10/01 12:12:36;;;;;;;3.42;2.08;;;16.30;99.90;;;;;;5053564;28;20040;-59
2022/10/01 12:15:16;;;;;;;8.73;2.40;;;16.50;99.90;;;;;;5050512;28;20035;-59
2022/10/01 12:17:54;;;;;;;9.43;2.50;;;16.80;99.90;;;;;;5050587;28;20092;-56
2022/10/01 12:20:39;;;;;;;10.38;2.25;;;16.60;99.90;;;;;;5054527;28;20052;-55
2022/10/01 12:23:11;;;;;;;13.23;2.42;;;16.20;99.90;;;;;;5048721;28;20031;-56
2022/10/01 12:25:54;;;;;;;14.70;2.70;;;15.90;99.90;;;;;;5054229;28;20119;-58
2022/10/01 12:28:35;;;;;;;15.80;3.53;;;15.80;99.90;;;;;;5054889;28;20098;-54
2022/10/01 12:31:11;;;;;;;11.25;2.20;;;15.70;99.90;;;;;;5050328;28;20679;-57
2022/10/01 12:33:45;;;;;;;8.15;2.45;;;15.60;99.90;;;;;;5044499;28;20033;-56
2022/10/01 12:36:35;;;;;;;10.95;2.08;;;15.20;99.90;;;;;;5051225;28;20029;-54
2022/10/01 12:39:15;;;;;;;10.70;3.10;;;14.90;99.90;;;;;;5051628;28;20028;-56
2022/10/01 12:42:09;;;;;;;6.78;2.50;;;14.70;99.90;;;;;;5054544;28;20047;-58
2022/10/01 12:44:48;;;;;;;7.50;1.80;;;14.60;99.90;;;;;;5043821;28;20056;-55
2022/10/01 12:47:34;;;;;;;7.72;2.00;;;14.50;99.90;;;;;;5050916;28;20665;-58
2022/10/01 12:50:20;;;;;;;13.60;2.38;;;14.30;99.90;;;;;;5054330;28;20071;-54
2022/10/01 12:53:24;;;;;;;6.55;2.40;;;14.20;99.90;;;;;;5052936;28;20052;-56
2022/10/01 12:55:50;;;;;;;7.32;2.00;;;14.50;99.90;;;;;;5044390;28;20021;-55
2022/10/01 12:58:32;;;;;;;10.65;2.35;;;14.70;99.90;;;;;;5051004;28;20021;-55
2022/10/01 13:01:27;;;;;;;5.40;1.98;;;14.60;99.90;;;;;;5050028;28;22102;-55
2022/10/01 13:04:22;;;;;;;7.43;2.10;;;14.60;99.90;;;;;;5051228;28;20044;-55
2022/10/01 13:07:09;;;;;;;4.25;2.25;;;14.50;99.90;;;;;;5046191;28;20033;-54
2022/10/01 13:10:02;;;;;;;7.20;2.38;;;14.50;99.90;;;;;;5051814;28;20031;-54
2022/10/01 13:12:44;;;;;;;12.32;2.53;;;14.50;99.90;;;;;;5054145;28;20028;-56